sensor_id;sensor_type;location;lat;lon;timestamp;pressure;altitude;pressure_sealevel;temperature
19948;BMP180;10135;50.702;7.276;2024-01-27T06:31:21;101332.00;;;7.00
19948;BMP180;10135;50.702;7.276;2024-01-27T06:33:22;101328.00;;;6.90
19948;BMP180;10135;50.702;7.276;2024-01-27T06:35:22;101332.00;;;6.90
19948;BMP180;10135;50.702;7.276;2024-01-27T06:37:23;101332.00;;;6.90
19948;BMP180;10135;50.702;7.276;2024-01-27T06:39:23;101334.00;;;6.90
19948;BMP180;10135;50.702;7.276;2024-01-27T06:41:24;101342.00;;;6.90
19948;BMP180;10135;50.702;7.276;2024-01-27T06:43:25;101346.00;;;6.90
19948;BMP180;10135;50.702;7.276;2024-01-27T06:45:25;101351.00;;;6.90
19948;BMP180;10135;50.702;7.276;2024-01-27T06:47:26;101349.00;;;6.90
19948;BMP180;10135;50.702;7.276;2024-01-27T06:49:27;101349.00;;;6.90
19948;BMP180;10135;50.702;7.276;2024-01-27T06:51:27;101358.00;;;6.90
19948;BMP180;10135;50.702;7.276;2024-01-27T06:53:28;101357.00;;;6.90
19948;BMP180;10135;50.702;7.276;2024-01-27T06:55:29;101357.00;;;6.90
19948;BMP180;10135;50.702;7.276;2024-01-27T06:57:29;101357.00;;;7.00
19948;BMP180;10135;50.702;7.276;2024-01-27T06:59:30;101349.00;;;6.90
19948;BMP180;10135;50.702;7.276;2024-01-27T07:01:31;101351.00;;;7.00
19948;BMP180;10135;50.702;7.276;2024-01-27T07:03:31;101351.00;;;7.00
19948;BMP180;10135;50.702;7.276;2024-01-27T07:05:32;101349.00;;;7.00
19948;BMP180;10135;50.702;7.276;2024-01-27T07:07:38;101351.00;;;7.00
19948;BMP180;10135;50.702;7.276;2024-01-27T07:09:39;101355.00;;;7.00
19948;BMP180;10135;50.702;7.276;2024-01-27T07:11:40;101365.00;;;7.00
19948;BMP180;10135;50.702;7.276;2024-01-27T07:13:41;101360.00;;;7.10
19948;BMP180;10135;50.702;7.276;2024-01-27T07:15:42;101367.00;;;7.10
19948;BMP180;10135;50.702;7.276;2024-01-27T07:17:43;101374.00;;;7.10
19948;BMP180;10135;50.702;7.276;2024-01-27T07:19:43;101376.00;;;7.10
19948;BMP180;10135;50.702;7.276;2024-01-27T07:21:44;101380.00;;;7.10
19948;BMP180;10135;50.702;7.276;2024-01-27T07:23:45;101376.00;;;7.10
19948;BMP180;10135;50.702;7.276;2024-01-27T07:25:45;101380.00;;;7.10
19948;BMP180;10135;50.702;7.276;2024-01-27T07:27:46;101372.00;;;7.10
19948;BMP180;10135;50.702;7.276;2024-01-27T07:29:47;101378.00;;;7.10
19948;BMP180;10135;50.702;7.276;2024-01-27T07:31:49;101375.00;;;7.10
19948;BMP180;10135;50.702;7.276;2024-01-27T07:33:50;101381.00;;;7.10
19948;BMP180;10135;50.702;7.276;2024-01-27T07:35:51;101383.00;;;7.10
19948;BMP180;10135;50.702;7.276;2024-01-27T07:37:51;101389.00;;;7.10
19948;BMP180;10135;50.702;7.276;2024-01-27T07:39:52;101384.00;;;7.10
19948;BMP180;10135;50.702;7.276;2024-01-27T07:41:53;101384.00;;;7.10
19948;BMP180;10135;50.702;7.276;2024-01-27T07:43:54;101382.00;;;7.20
19948;BMP180;10135;50.702;7.276;2024-01-27T07:45:55;101381.00;;;7.20
19948;BMP180;10135;50.702;7.276;2024-01-27T07:47:56;101383.00;;;7.20
19948;BMP180;10135;50.702;7.276;2024-01-27T07:49:56;101371.00;;;7.20
19948;BMP180;10135;50.702;7.276;2024-01-27T07:51:57;101382.00;;;7.30
19948;BMP180;10135;50.702;7.276;2024-01-27T07:53:59;101376.00;;;7.30
19948;BMP180;10135;50.702;7.276;2024-01-27T07:56:00;101377.00;;;7.30
19948;BMP180;10135;50.702;7.276;2024-01-27T07:58:00;101382.00;;;7.30
19948;BMP180;10135;50.702;7.276;2024-01-27T08:00:01;101385.00;;;7.30
19948;BMP180;10135;50.702;7.276;2024-01-27T08:02:01;101392.00;;;7.40
19948;BMP180;10135;50.702;7.276;2024-01-27T08:04:02;101379.00;;;7.40
19948;BMP180;10135;50.702;7.276;2024-01-27T08:06:07;101374.00;;;7.50
19948;BMP180;10135;50.702;7.276;2024-01-27T08:08:10;101379.00;;;7.70
19948;BMP180;10135;50.702;7.276;2024-01-27T08:10:11;101368.00;;;8.00
19948;BMP180;10135;50.702;7.276;2024-01-27T08:12:11;101372.00;;;8.40
19948;BMP180;10135;50.702;7.276;2024-01-27T08:14:12;101374.00;;;8.80
19948;BMP180;10135;50.702;7.276;2024-01-27T08:16:13;101384.00;;;9.20
19948;BMP180;10135;50.702;7.276;2024-01-27T08:18:14;101374.00;;;9.60
19948;BMP180;10135;50.702;7.276;2024-01-27T08:20:15;101370.00;;;10.00
19948;BMP180;10135;50.702;7.276;2024-01-27T08:22:15;101372.00;;;10.40
19948;BMP180;10135;50.702;7.276;2024-01-27T08:24:16;101382.00;;;10.80
19948;BMP180;10135;50.702;7.276;2024-01-27T08:26:17;101382.00;;;11.10
19948;BMP180;10135;50.702;7.276;2024-01-27T08:28:19;101388.00;;;11.40
19948;BMP180;10135;50.702;7.276;2024-01-27T08:30:19;101383.00;;;11.70
19948;BMP180;10135;50.702;7.276;2024-01-27T08:32:20;101383.00;;;12.00
19948;BMP180;10135;50.702;7.276;2024-01-27T08:34:21;101388.00;;;12.30
19948;BMP180;10135;50.702;7.276;2024-01-27T08:36:21;101382.00;;;12.70
19948;BMP180;10135;50.702;7.276;2024-01-27T08:38:22;101379.00;;;13.00
19948;BMP180;10135;50.702;7.276;2024-01-27T08:40:23;101390.00;;;13.40
19948;BMP180;10135;50.702;7.276;2024-01-27T08:42:23;101386.00;;;13.90
19948;BMP180;10135;50.702;7.276;2024-01-27T08:44:24;101391.00;;;14.30
19948;BMP180;10135;50.702;7.276;2024-01-27T08:46:25;101395.00;;;14.70
19948;BMP180;10135;50.702;7.276;2024-01-27T08:48:26;101390.00;;;15.10
19948;BMP180;10135;50.702;7.276;2024-01-27T08:50:26;101393.00;;;15.50
19948;BMP180;10135;50.702;7.276;2024-01-27T08:52:27;101393.00;;;15.90
19948;BMP180;10135;50.702;7.276;2024-01-27T08:54:28;101401.00;;;16.20
19948;BMP180;10135;50.702;7.276;2024-01-27T08:56:28;101394.00;;;16.50
19948;BMP180;10135;50.702;7.276;2024-01-27T08:58:29;101399.00;;;16.90
19948;BMP180;10135;50.702;7.276;2024-01-27T09:00:30;101400.00;;;17.20
19948;BMP180;10135;50.702;7.276;2024-01-27T09:02:30;101391.00;;;17.40
19948;BMP180;10135;50.702;7.276;2024-01-27T09:04:31;101394.00;;;17.70
19948;BMP180;10135;50.702;7.276;2024-01-27T09:06:32;101392.00;;;17.90
19948;BMP180;10135;50.702;7.276;2024-01-27T09:08:32;101392.00;;;18.10
19948;BMP180;10135;50.702;7.276;2024-01-27T09:10:33;101390.00;;;18.30
19948;BMP180;10135;50.702;7.276;2024-01-27T09:12:34;101387.00;;;18.50
19948;BMP180;10135;50.702;7.276;2024-01-27T09:14:34;101377.00;;;18.60
19948;BMP180;10135;50.702;7.276;2024-01-27T09:16:35;101379.00;;;18.70
19948;BMP180;10135;50.702;7.276;2024-01-27T09:18:36;101369.00;;;18.70
19948;BMP180;10135;50.702;7.276;2024-01-27T09:20:36;101379.00;;;18.80
19948;BMP180;10135;50.702;7.276;2024-01-27T09:22:37;101375.00;;;18.80
19948;BMP180;10135;50.702;7.276;2024-01-27T09:24:38;101380.00;;;18.70
19948;BMP180;10135;50.702;7.276;2024-01-27T09:26:39;101373.00;;;18.70
19948;BMP180;10135;50.702;7.276;2024-01-27T09:28:40;101378.00;;;18.60
19948;BMP180;10135;50.702;7.276;2024-01-27T09:30:44;101374.00;;;18.60
19948;BMP180;10135;50.702;7.276;2024-01-27T09:32:44;101378.00;;;18.50
19948;BMP180;10135;50.702;7.276;2024-01-27T09:34:45;101372.00;;;18.30
19948;BMP180;10135;50.702;7.276;2024-01-27T09:36:46;101375.00;;;18.10
19948;BMP180;10135;50.702;7.276;2024-01-27T09:38:47;101366.00;;;17.90
19948;BMP180;10135;50.702;7.276;2024-01-27T09:40:48;101365.00;;;17.60
19948;BMP180;10135;50.702;7.276;2024-01-27T09:42:52;101369.00;;;17.20
19948;BMP180;10135;50.702;7.276;2024-01-27T09:44:55;101378.00;;;16.90
19948;BMP180;10135;50.702;7.276;2024-01-27T09:46:56;101371.00;;;16.60
19948;BMP180;10135;50.702;7.276;2024-01-27T09:48:58;101370.00;;;16.30
19948;BMP180;10135;50.702;7.276;2024-01-27T09:51:00;101368.00;;;16.00
19948;BMP180;10135;50.702;7.276;2024-01-27T09:53:01;101373.00;;;15.70
19948;BMP180;10135;50.702;7.276;2024-01-27T09:55:03;101378.00;;;15.50
19948;BMP180;10135;50.702;7.276;2024-01-27T09:57:04;101384.00;;;15.20
19948;BMP180;10135;50.702;7.276;2024-01-27T09:59:05;101381.00;;;15.00
19948;BMP180;10135;50.702;7.276;2024-01-27T10:01:07;101375.00;;;14.80
19948;BMP180;10135;50.702;7.276;2024-01-27T10:03:09;101376.00;;;14.60
19948;BMP180;10135;50.702;7.276;2024-01-27T10:05:11;101384.00;;;14.40
19948;BMP180;10135;50.702;7.276;2024-01-27T10:07:12;101385.00;;;14.20
19948;BMP180;10135;50.702;7.276;2024-01-27T10:09:12;101389.00;;;14.00
19948;BMP180;10135;50.702;7.276;2024-01-27T10:11:14;101391.00;;;13.90
19948;BMP180;10135;50.702;7.276;2024-01-27T10:13:17;101382.00;;;13.80
19948;BMP180;10135;50.702;7.276;2024-01-27T10:15:20;101399.00;;;13.60
19948;BMP180;10135;50.702;7.276;2024-01-27T10:17:22;101394.00;;;13.50
19948;BMP180;10135;50.702;7.276;2024-01-27T10:19:23;101393.00;;;13.40
19948;BMP180;10135;50.702;7.276;2024-01-27T10:21:24;101392.00;;;13.30
19948;BMP180;10135;50.702;7.276;2024-01-27T10:23:27;101391.00;;;13.20
19948;BMP180;10135;50.702;7.276;2024-01-27T10:25:27;101386.00;;;13.20
19948;BMP180;10135;50.702;7.276;2024-01-27T10:27:28;101398.00;;;13.10
19948;BMP180;10135;50.702;7.276;2024-01-27T10:29:31;101404.00;;;13.00
19948;BMP180;10135;50.702;7.276;2024-01-27T10:31:34;101416.00;;;13.00
19948;BMP180;10135;50.702;7.276;2024-01-27T10:33:36;101411.00;;;13.00
19948;BMP180;10135;50.702;7.276;2024-01-27T10:35:37;101420.00;;;12.90
19948;BMP180;10135;50.702;7.276;2024-01-27T10:37:38;101420.00;;;12.90
19948;BMP180;10135;50.702;7.276;2024-01-27T10:39:38;101429.00;;;12.80
19948;BMP180;10135;50.702;7.276;2024-01-27T10:41:40;101437.00;;;12.80
19948;BMP180;10135;50.702;7.276;2024-01-27T10:43:44;101429.00;;;12.80
19948;BMP180;10135;50.702;7.276;2024-01-27T10:45:45;101427.00;;;12.80
19948;BMP180;10135;50.702;7.276;2024-01-27T10:47:47;101426.00;;;12.80
19948;BMP180;10135;50.702;7.276;2024-01-27T10:49:51;101421.00;;;12.70
19948;BMP180;10135;50.702;7.276;2024-01-27T10:51:56;101415.00;;;12.70
19948;BMP180;10135;50.702;7.276;2024-01-27T10:54:02;101419.00;;;12.70
19948;BMP180;10135;50.702;7.276;2024-01-27T10:56:04;101409.00;;;12.70
19948;BMP180;10135;50.702;7.276;2024-01-27T10:58:12;101417.00;;;12.80
19948;BMP180;10135;50.702;7.276;2024-01-27T11:00:14;101421.00;;;12.80
19948;BMP180;10135;50.702;7.276;2024-01-27T11:02:16;101417.00;;;12.80
19948;BMP180;10135;50.702;7.276;2024-01-27T11:04:20;101429.00;;;12.80
19948;BMP180;10135;50.702;7.276;2024-01-27T11:06:22;101427.00;;;12.90
19948;BMP180;10135;50.702;7.276;2024-01-27T11:08:25;101424.00;;;12.80
19948;BMP180;10135;50.702;7.276;2024-01-27T11:10:30;101425.00;;;12.80
19948;BMP180;10135;50.702;7.276;2024-01-27T11:12:36;101416.00;;;12.80
19948;BMP180;10135;50.702;7.276;2024-01-27T11:14:37;101416.00;;;12.80
19948;BMP180;10135;50.702;7.276;2024-01-27T11:16:38;101408.00;;;12.80
19948;BMP180;10135;50.702;7.276;2024-01-27T11:18:45;101405.00;;;12.70
19948;BMP180;10135;50.702;7.276;2024-01-27T11:20:46;101404.00;;;12.70
19948;BMP180;10135;50.702;7.276;2024-01-27T11:22:46;101414.00;;;12.70
19948;BMP180;10135;50.702;7.276;2024-01-27T11:24:47;101405.00;;;12.70
19948;BMP180;10135;50.702;7.276;2024-01-27T11:26:48;101407.00;;;12.70
19948;BMP180;10135;50.702;7.276;2024-01-27T11:28:51;101409.00;;;12.70
19948;BMP180;10135;50.702;7.276;2024-01-27T11:30:54;101406.00;;;12.70
19948;BMP180;10135;50.702;7.276;2024-01-27T11:33:00;101409.00;;;12.70
19948;BMP180;10135;50.702;7.276;2024-01-27T11:35:01;101405.00;;;12.70
19948;BMP180;10135;50.702;7.276;2024-01-27T11:37:16;101400.00;;;12.60
19948;BMP180;10135;50.702;7.276;2024-01-27T11:41:28;101394.00;;;12.60
19948;BMP180;10135;50.702;7.276;2024-01-27T11:43:29;101393.00;;;12.60
19948;BMP180;10135;50.702;7.276;2024-01-27T11:45:30;101393.00;;;12.60
19948;BMP180;10135;50.702;7.276;2024-01-27T11:47:31;101400.00;;;12.60
19948;BMP180;10135;50.702;7.276;2024-01-27T11:49:33;101399.00;;;12.70
19948;BMP180;10135;50.702;7.276;2024-01-27T11:51:34;101395.00;;;12.70
19948;BMP180;10135;50.702;7.276;2024-01-27T11:53:35;101392.00;;;12.70
19948;BMP180;10135;50.702;7.276;2024-01-27T11:55:37;101389.00;;;12.80
19948;BMP180;10135;50.702;7.276;2024-01-27T11:57:37;101396.00;;;12.80
19948;BMP180;10135;50.702;7.276;2024-01-27T11:59:38;101392.00;;;12.80
19948;BMP180;10135;50.702;7.276;2024-01-27T12:01:39;101392.00;;;12.90
19948;BMP180;10135;50.702;7.276;2024-01-27T12:03:40;101401.00;;;12.90
19948;BMP180;10135;50.702;7.276;2024-01-27T12:05:40;101395.00;;;12.90
19948;BMP180;10135;50.702;7.276;2024-01-27T12:07:41;101405.00;;;13.00
19948;BMP180;10135;50.702;7.276;2024-01-27T12:09:42;101400.00;;;13.00
19948;BMP180;10135;50.702;7.276;2024-01-27T12:11:43;101405.00;;;13.00
19948;BMP180;10135;50.702;7.276;2024-01-27T12:13:43;101405.00;;;13.10
19948;BMP180;10135;50.702;7.276;2024-01-27T12:15:44;101407.00;;;13.10
19948;BMP180;10135;50.702;7.276;2024-01-27T12:17:52;101408.00;;;13.10
19948;BMP180;10135;50.702;7.276;2024-01-27T12:19:53;101409.00;;;13.10
19948;BMP180;10135;50.702;7.276;2024-01-27T12:21:54;101412.00;;;13.10
19948;BMP180;10135;50.702;7.276;2024-01-27T12:23:57;101408.00;;;13.10
19948;BMP180;10135;50.702;7.276;2024-01-27T12:25:58;101408.00;;;13.20
19948;BMP180;10135;50.702;7.276;2024-01-27T12:28:06;101406.00;;;13.20
19948;BMP180;10135;50.702;7.276;2024-01-27T12:30:09;101403.00;;;13.20
19948;BMP180;10135;50.702;7.276;2024-01-27T12:32:10;101406.00;;;13.20
19948;BMP180;10135;50.702;7.276;2024-01-27T12:34:11;101405.00;;;13.20
19948;BMP180;10135;50.702;7.276;2024-01-27T12:36:12;101399.00;;;13.20
19948;BMP180;10135;50.702;7.276;2024-01-27T12:38:13;101390.00;;;13.30
19948;BMP180;10135;50.702;7.276;2024-01-27T12:40:18;101388.00;;;13.30
19948;BMP180;10135;50.702;7.276;2024-01-27T12:42:19;101387.00;;;13.30
19948;BMP180;10135;50.702;7.276;2024-01-27T12:44:20;101381.00;;;13.40
19948;BMP180;10135;50.702;7.276;2024-01-27T12:46:21;101388.00;;;13.40
19948;BMP180;10135;50.702;7.276;2024-01-27T12:48:21;101385.00;;;13.40
19948;BMP180;10135;50.702;7.276;2024-01-27T12:50:22;101383.00;;;13.50
19948;BMP180;10135;50.702;7.276;2024-01-27T12:52:23;101386.00;;;13.50
19948;BMP180;10135;50.702;7.276;2024-01-27T12:54:25;101384.00;;;13.50
19948;BMP180;10135;50.702;7.276;2024-01-27T12:56:25;101377.00;;;13.50
19948;BMP180;10135;50.702;7.276;2024-01-27T12:58:26;101375.00;;;13.50
19948;BMP180;10135;50.702;7.276;2024-01-27T13:00:28;101366.00;;;13.50
19948;BMP180;10135;50.702;7.276;2024-01-27T13:02:28;101368.00;;;13.50
19948;BMP180;10135;50.702;7.276;2024-01-27T13:04:29;101375.00;;;13.50
19948;BMP180;10135;50.702;7.276;2024-01-27T13:06:30;101366.00;;;13.50
19948;BMP180;10135;50.702;7.276;2024-01-27T13:08:31;101362.00;;;13.50
19948;BMP180;10135;50.702;7.276;2024-01-27T13:10:31;101363.00;;;13.50
19948;BMP180;10135;50.702;7.276;2024-01-27T13:12:32;101363.00;;;13.50
19948;BMP180;10135;50.702;7.276;2024-01-27T13:14:33;101358.00;;;13.50
19948;BMP180;10135;50.702;7.276;2024-01-27T13:16:33;101363.00;;;13.50
19948;BMP180;10135;50.702;7.276;2024-01-27T13:18:35;101368.00;;;13.50
19948;BMP180;10135;50.702;7.276;2024-01-27T13:20:37;101366.00;;;13.50
19948;BMP180;10135;50.702;7.276;2024-01-27T13:22:38;101364.00;;;13.50
19948;BMP180;10135;50.702;7.276;2024-01-27T13:24:39;101357.00;;;13.40
19948;BMP180;10135;50.702;7.276;2024-01-27T13:26:39;101347.00;;;13.40
19948;BMP180;10135;50.702;7.276;2024-01-27T13:28:40;101348.00;;;13.40
19948;BMP180;10135;50.702;7.276;2024-01-27T13:30:40;101352.00;;;13.40
19948;BMP180;10135;50.702;7.276;2024-01-27T13:32:43;101352.00;;;13.40
19948;BMP180;10135;50.702;7.276;2024-01-27T13:34:43;101359.00;;;13.30
19948;BMP180;10135;50.702;7.276;2024-01-27T13:36:44;101358.00;;;13.30
19948;BMP180;10135;50.702;7.276;2024-01-27T13:38:45;101351.00;;;13.30
19948;BMP180;10135;50.702;7.276;2024-01-27T13:40:46;101342.00;;;13.30
19948;BMP180;10135;50.702;7.276;2024-01-27T13:42:46;101348.00;;;13.30
19948;BMP180;10135;50.702;7.276;2024-01-27T13:44:47;101348.00;;;13.30
19948;BMP180;10135;50.702;7.276;2024-01-27T13:46:48;101344.00;;;13.30
19948;BMP180;10135;50.702;7.276;2024-01-27T13:48:49;101341.00;;;13.30
19948;BMP180;10135;50.702;7.276;2024-01-27T13:50:49;101338.00;;;13.30
19948;BMP180;10135;50.702;7.276;2024-01-27T13:52:50;101339.00;;;13.30
19948;BMP180;10135;50.702;7.276;2024-01-27T13:54:51;101339.00;;;13.30
19948;BMP180;10135;50.702;7.276;2024-01-27T13:56:51;101351.00;;;13.20
19948;BMP180;10135;50.702;7.276;2024-01-27T13:58:52;101348.00;;;13.20
19948;BMP180;10135;50.702;7.276;2024-01-27T14:00:53;101346.00;;;13.20
19948;BMP180;10135;50.702;7.276;2024-01-27T14:02:54;101342.00;;;13.20
19948;BMP180;10135;50.702;7.276;2024-01-27T14:04:55;101340.00;;;13.20
19948;BMP180;10135;50.702;7.276;2024-01-27T14:06:56;101339.00;;;13.20
19948;BMP180;10135;50.702;7.276;2024-01-27T14:08:56;101333.00;;;13.10
19948;BMP180;10135;50.702;7.276;2024-01-27T14:10:57;101336.00;;;13.10
19948;BMP180;10135;50.702;7.276;2024-01-27T14:12:58;101332.00;;;13.10
19948;BMP180;10135;50.702;7.276;2024-01-27T14:15:06;101338.00;;;13.00
19948;BMP180;10135;50.702;7.276;2024-01-27T14:17:08;101328.00;;;13.10
19948;BMP180;10135;50.702;7.276;2024-01-27T14:19:09;101328.00;;;13.00
19948;BMP180;10135;50.702;7.276;2024-01-27T14:21:10;101325.00;;;13.00
19948;BMP180;10135;50.702;7.276;2024-01-27T14:23:11;101325.00;;;13.00
19948;BMP180;10135;50.702;7.276;2024-01-27T14:25:12;101326.00;;;13.00
19948;BMP180;10135;50.702;7.276;2024-01-27T14:27:13;101322.00;;;13.00
19948;BMP180;10135;50.702;7.276;2024-01-27T14:29:14;101331.00;;;12.90
19948;BMP180;10135;50.702;7.276;2024-01-27T14:31:17;101327.00;;;12.90
19948;BMP180;10135;50.702;7.276;2024-01-27T14:33:18;101323.00;;;12.90
19948;BMP180;10135;50.702;7.276;2024-01-27T14:35:21;101318.00;;;12.90
19948;BMP180;10135;50.702;7.276;2024-01-27T14:37:22;101320.00;;;12.90
19948;BMP180;10135;50.702;7.276;2024-01-27T14:39:22;101314.00;;;12.90
19948;BMP180;10135;50.702;7.276;2024-01-27T14:41:23;101314.00;;;12.90
19948;BMP180;10135;50.702;7.276;2024-01-27T14:43:24;101315.00;;;12.90
19948;BMP180;10135;50.702;7.276;2024-01-27T14:45:25;101322.00;;;12.90
19948;BMP180;10135;50.702;7.276;2024-01-27T14:47:26;101310.00;;;12.90
19948;BMP180;10135;50.702;7.276;2024-01-27T14:49:26;101317.00;;;12.90
19948;BMP180;10135;50.702;7.276;2024-01-27T14:51:28;101317.00;;;12.80
19948;BMP180;10135;50.702;7.276;2024-01-27T14:53:29;101313.00;;;12.80
19948;BMP180;10135;50.702;7.276;2024-01-27T14:55:31;101311.00;;;12.80
19948;BMP180;10135;50.702;7.276;2024-01-27T14:57:33;101315.00;;;12.80
19948;BMP180;10135;50.702;7.276;2024-01-27T14:59:34;101304.00;;;12.80
19948;BMP180;10135;50.702;7.276;2024-01-27T15:01:35;101303.00;;;12.80
19948;BMP180;10135;50.702;7.276;2024-01-27T15:03:36;101299.00;;;12.80
19948;BMP180;10135;50.702;7.276;2024-01-27T15:05:37;101298.00;;;12.80
19948;BMP180;10135;50.702;7.276;2024-01-27T15:07:41;101295.00;;;12.80
19948;BMP180;10135;50.702;7.276;2024-01-27T15:09:42;101291.00;;;12.80
19948;BMP180;10135;50.702;7.276;2024-01-27T15:11:42;101293.00;;;12.80
19948;BMP180;10135;50.702;7.276;2024-01-27T15:13:43;101290.00;;;12.70
19948;BMP180;10135;50.702;7.276;2024-01-27T15:15:44;101284.00;;;12.70
19948;BMP180;10135;50.702;7.276;2024-01-27T15:17:45;101287.00;;;12.70
19948;BMP180;10135;50.702;7.276;2024-01-27T15:19:45;101285.00;;;12.70
19948;BMP180;10135;50.702;7.276;2024-01-27T15:21:46;101279.00;;;12.70
19948;BMP180;10135;50.702;7.276;2024-01-27T15:23:47;101275.00;;;12.60
19948;BMP180;10135;50.702;7.276;2024-01-27T15:25:47;101278.00;;;12.60
19948;BMP180;10135;50.702;7.276;2024-01-27T15:27:48;101281.00;;;12.60
19948;BMP180;10135;50.702;7.276;2024-01-27T15:29:51;101279.00;;;12.60
19948;BMP180;10135;50.702;7.276;2024-01-27T15:31:52;101276.00;;;12.50
19948;BMP180;10135;50.702;7.276;2024-01-27T15:33:53;101275.00;;;12.50
19948;BMP180;10135;50.702;7.276;2024-01-27T15:35:53;101274.00;;;12.50
19948;BMP180;10135;50.702;7.276;2024-01-27T15:37:54;101267.00;;;12.40
19948;BMP180;10135;50.702;7.276;2024-01-27T15:39:55;101274.00;;;12.40
19948;BMP180;10135;50.702;7.276;2024-01-27T15:41:55;101279.00;;;12.30
19948;BMP180;10135;50.702;7.276;2024-01-27T15:43:58;101276.00;;;12.30
19948;BMP180;10135;50.702;7.276;2024-01-27T15:45:59;101275.00;;;12.30
19948;BMP180;10135;50.702;7.276;2024-01-27T15:48:05;101278.00;;;12.20
19948;BMP180;10135;50.702;7.276;2024-01-27T15:50:06;101275.00;;;12.20
19948;BMP180;10135;50.702;7.276;2024-01-27T15:52:08;101281.00;;;12.10
19948;BMP180;10135;50.702;7.276;2024-01-27T15:54:08;101281.00;;;12.10
19948;BMP180;10135;50.702;7.276;2024-01-27T15:56:09;101283.00;;;12.00
19948;BMP180;10135;50.702;7.276;2024-01-27T15:58:10;101292.00;;;12.00
19948;BMP180;10135;50.702;7.276;2024-01-27T16:00:12;101281.00;;;11.90
19948;BMP180;10135;50.702;7.276;2024-01-27T16:02:12;101281.00;;;11.90
19948;BMP180;10135;50.702;7.276;2024-01-27T16:04:13;101289.00;;;11.90
19948;BMP180;10135;50.702;7.276;2024-01-27T16:06:14;101283.00;;;11.80
19948;BMP180;10135;50.702;7.276;2024-01-27T16:08:14;101286.00;;;11.80
19948;BMP180;10135;50.702;7.276;2024-01-27T16:10:15;101276.00;;;11.70
19948;BMP180;10135;50.702;7.276;2024-01-27T16:12:16;101274.00;;;11.70
19948;BMP180;10135;50.702;7.276;2024-01-27T16:14:17;101275.00;;;11.70
19948;BMP180;10135;50.702;7.276;2024-01-27T16:16:17;101282.00;;;11.60
19948;BMP180;10135;50.702;7.276;2024-01-27T16:18:20;101286.00;;;11.60
19948;BMP180;10135;50.702;7.276;2024-01-27T16:20:20;101288.00;;;11.60
19948;BMP180;10135;50.702;7.276;2024-01-27T16:22:21;101288.00;;;11.50
19948;BMP180;10135;50.702;7.276;2024-01-27T16:24:23;101288.00;;;11.50
19948;BMP180;10135;50.702;7.276;2024-01-27T16:26:24;101289.00;;;11.50
19948;BMP180;10135;50.702;7.276;2024-01-27T16:28:25;101290.00;;;11.40
19948;BMP180;10135;50.702;7.276;2024-01-27T16:30:27;101287.00;;;11.40
19948;BMP180;10135;50.702;7.276;2024-01-27T16:32:28;101287.00;;;11.30
19948;BMP180;10135;50.702;7.276;2024-01-27T16:34:29;101286.00;;;11.30
19948;BMP180;10135;50.702;7.276;2024-01-27T16:36:29;101290.00;;;11.30
19948;BMP180;10135;50.702;7.276;2024-01-27T16:38:30;101294.00;;;11.20
19948;BMP180;10135;50.702;7.276;2024-01-27T16:40:30;101302.00;;;11.20
19948;BMP180;10135;50.702;7.276;2024-01-27T16:42:31;101306.00;;;11.20
19948;BMP180;10135;50.702;7.276;2024-01-27T16:44:32;101305.00;;;11.20
19948;BMP180;10135;50.702;7.276;2024-01-27T16:46:33;101304.00;;;11.10
19948;BMP180;10135;50.702;7.276;2024-01-27T16:48:34;101290.00;;;11.10
19948;BMP180;10135;50.702;7.276;2024-01-27T16:50:36;101288.00;;;11.00
19948;BMP180;10135;50.702;7.276;2024-01-27T16:52:36;101283.00;;;11.00
19948;BMP180;10135;50.702;7.276;2024-01-27T16:54:38;101289.00;;;11.00
19948;BMP180;10135;50.702;7.276;2024-01-27T16:56:40;101293.00;;;11.00
19948;BMP180;10135;50.702;7.276;2024-01-27T16:58:41;101285.00;;;10.90
19948;BMP180;10135;50.702;7.276;2024-01-27T17:00:46;101285.00;;;10.90
19948;BMP180;10135;50.702;7.276;2024-01-27T17:02:47;101285.00;;;10.80
19948;BMP180;10135;50.702;7.276;2024-01-27T17:04:48;101280.00;;;10.80
19948;BMP180;10135;50.702;7.276;2024-01-27T17:06:50;101283.00;;;10.70
19948;BMP180;10135;50.702;7.276;2024-01-27T17:08:50;101285.00;;;10.70
19948;BMP180;10135;50.702;7.276;2024-01-27T17:10:51;101294.00;;;10.60
19948;BMP180;10135;50.702;7.276;2024-01-27T17:12:53;101299.00;;;10.60
19948;BMP180;10135;50.702;7.276;2024-01-27T17:14:53;101292.00;;;10.60
19948;BMP180;10135;50.702;7.276;2024-01-27T17:16:54;101285.00;;;10.50
19948;BMP180;10135;50.702;7.276;2024-01-27T17:18:55;101291.00;;;10.50
19948;BMP180;10135;50.702;7.276;2024-01-27T17:20:56;101277.00;;;10.50
19948;BMP180;10135;50.702;7.276;2024-01-27T17:22:58;101288.00;;;10.40
19948;BMP180;10135;50.702;7.276;2024-01-27T17:24:58;101292.00;;;10.40
19948;BMP180;10135;50.702;7.276;2024-01-27T17:27:02;101293.00;;;10.40
19948;BMP180;10135;50.702;7.276;2024-01-27T17:29:03;101290.00;;;10.40
19948;BMP180;10135;50.702;7.276;2024-01-27T17:31:03;101284.00;;;10.40
19948;BMP180;10135;50.702;7.276;2024-01-27T17:33:04;101278.00;;;10.30
19948;BMP180;10135;50.702;7.276;2024-01-27T17:35:05;101275.00;;;10.30
19948;BMP180;10135;50.702;7.276;2024-01-27T17:37:08;101276.00;;;10.30
19948;BMP180;10135;50.702;7.276;2024-01-27T17:39:09;101279.00;;;10.20
19948;BMP180;10135;50.702;7.276;2024-01-27T17:41:10;101278.00;;;10.20
19948;BMP180;10135;50.702;7.276;2024-01-27T17:43:10;101276.00;;;10.20
19948;BMP180;10135;50.702;7.276;2024-01-27T17:45:11;101277.00;;;10.20
19948;BMP180;10135;50.702;7.276;2024-01-27T17:47:12;101279.00;;;10.10
19948;BMP180;10135;50.702;7.276;2024-01-27T17:49:13;101267.00;;;10.10
19948;BMP180;10135;50.702;7.276;2024-01-27T17:51:13;101279.00;;;10.10
19948;BMP180;10135;50.702;7.276;2024-01-27T17:53:14;101283.00;;;10.00
19948;BMP180;10135;50.702;7.276;2024-01-27T17:55:16;101283.00;;;10.00
19948;BMP180;10135;50.702;7.276;2024-01-27T17:57:16;101279.00;;;10.00
19948;BMP180;10135;50.702;7.276;2024-01-27T17:59:17;101280.00;;;10.00
19948;BMP180;10135;50.702;7.276;2024-01-27T18:01:18;101282.00;;;10.00
19948;BMP180;10135;50.702;7.276;2024-01-27T18:03:19;101278.00;;;9.90